createdAt,value
2023-03-02T00:02:57.610Z,4.30
2023-03-02T00:08:03.550Z,4.30
2023-03-02T00:13:09.202Z,4.30
2023-03-02T00:18:13.219Z,4.20
2023-03-02T00:23:17.665Z,4.10
2023-03-02T00:28:23.088Z,4.10
2023-03-02T00:33:27.645Z,4.10
2023-03-02T00:38:31.702Z,4.00
2023-03-02T00:43:37.120Z,4.00
2023-03-02T00:48:41.268Z,4.00
2023-03-02T00:53:46.367Z,4.00
2023-03-02T00:58:51.790Z,3.90
2023-03-02T01:03:56.394Z,3.90
2023-03-02T01:09:00.601Z,3.90
2023-03-02T01:14:06.257Z,3.80
2023-03-02T01:19:10.530Z,3.80
2023-03-02T01:24:15.232Z,3.80
2023-03-02T01:29:20.857Z,3.80
2023-03-02T01:34:26.603Z,3.70
2023-03-02T01:39:31.080Z,3.70
2023-03-02T01:44:42.856Z,3.70
2023-03-02T01:49:53.770Z,3.70
2023-03-02T01:55:03.246Z,3.70
2023-03-02T02:00:13.782Z,3.60
2023-03-02T02:05:24.592Z,3.60
2023-03-02T02:10:30.226Z,3.50
2023-03-02T02:15:36.680Z,3.50
2023-03-02T02:20:46.111Z,3.50
2023-03-02T02:26:12.319Z,3.40
2023-03-02T02:31:22.889Z,3.30
2023-03-02T02:36:33.539Z,3.30
2023-03-02T02:41:43.684Z,3.30
2023-03-02T02:46:48.060Z,3.30
2023-03-02T02:51:52.487Z,3.20
2023-03-02T02:57:02.895Z,3.20
2023-03-02T03:02:08.348Z,3.20
2023-03-02T03:07:21.998Z,3.20
2023-03-02T03:12:30.524Z,3.20
2023-03-02T03:17:34.753Z,3.10
2023-03-02T03:22:40.189Z,3.10
2023-03-02T03:27:48.536Z,3.10
2023-03-02T03:32:53.337Z,3.10
2023-03-02T03:37:57.478Z,3.00
2023-03-02T03:43:03.711Z,3.00
2023-03-02T03:48:08.382Z,3.00
2023-03-02T03:53:12.725Z,3.00
2023-03-02T03:58:18.709Z,3.00
2023-03-02T04:03:24.062Z,3.00
2023-03-02T04:08:28.195Z,3.00
2023-03-02T04:13:34.580Z,3.00
2023-03-02T04:18:39.020Z,2.90
2023-03-02T04:23:43.349Z,2.90
2023-03-02T04:28:50.905Z,2.90
2023-03-02T04:33:56.344Z,2.90
2023-03-02T04:39:00.697Z,2.90
2023-03-02T04:44:06.417Z,2.80
2023-03-02T04:49:10.569Z,2.80
2023-03-02T04:54:19.000Z,2.80
2023-03-02T04:59:27.518Z,2.80
2023-03-02T05:04:32.108Z,2.80
2023-03-02T05:09:36.328Z,2.80
2023-03-02T05:14:41.732Z,2.70
2023-03-02T05:19:46.111Z,2.70
2023-03-02T05:24:50.214Z,2.60
2023-03-02T05:29:55.683Z,2.60
2023-03-02T05:35:00.745Z,2.60
2023-03-02T05:40:06.594Z,2.60
2023-03-02T05:45:21.947Z,2.60
2023-03-02T05:50:26.065Z,2.60
2023-03-02T05:55:30.292Z,2.50
2023-03-02T06:00:35.986Z,2.50
2023-03-02T06:05:40.803Z,2.50
2023-03-02T06:10:47.344Z,2.50
2023-03-02T06:15:58.668Z,2.40
2023-03-02T06:21:03.801Z,2.40
2023-03-02T06:26:13.172Z,2.40
2023-03-02T06:31:18.776Z,2.30
2023-03-02T06:36:23.150Z,2.30
2023-03-02T06:41:27.686Z,2.30
2023-03-02T06:46:33.497Z,2.30
2023-03-02T06:51:38.630Z,2.30
2023-03-02T06:56:42.660Z,2.30
2023-03-02T07:01:50.555Z,2.20
2023-03-02T07:06:54.871Z,2.20
2023-03-02T07:11:58.994Z,2.20
2023-03-02T07:17:05.985Z,2.20
2023-03-02T07:22:10.087Z,2.20
2023-03-02T07:27:14.335Z,2.20
2023-03-02T07:32:19.835Z,2.30
2023-03-02T07:37:23.984Z,2.30
2023-03-02T07:42:28.034Z,2.30
2023-03-02T07:47:36.143Z,2.30
2023-03-02T07:52:40.288Z,2.40
2023-03-02T07:57:44.475Z,2.40
2023-03-02T08:02:50.214Z,2.50
2023-03-02T08:07:54.416Z,2.60
2023-03-02T08:12:58.493Z,2.60
2023-03-02T08:18:03.898Z,2.70
2023-03-02T08:23:08.442Z,2.80
2023-03-02T08:28:12.534Z,2.90
2023-03-02T08:33:18.467Z,2.90
2023-03-02T08:38:22.573Z,3.00
2023-03-02T08:43:27.633Z,3.20
2023-03-02T08:48:33.593Z,3.30
2023-03-02T08:53:40.780Z,3.40
2023-03-02T08:58:55.015Z,4.30
2023-03-02T09:04:01.288Z,6.40
2023-03-02T09:09:06.231Z,8.60
2023-03-02T09:14:11.186Z,10.30
2023-03-02T09:19:16.658Z,11.50
2023-03-02T09:24:20.891Z,13.10
2023-03-02T09:29:25.435Z,14.50
2023-03-02T09:34:30.992Z,15.80
2023-03-02T09:39:35.168Z,16.70
2023-03-02T09:45:22.157Z,17.40
2023-03-02T09:50:35.782Z,16.80
2023-03-02T09:55:39.983Z,17.20
2023-03-02T10:00:45.530Z,18.20
2023-03-02T10:05:58.324Z,19.00
2023-03-02T10:11:13.112Z,19.70
2023-03-02T10:16:32.533Z,20.20
2023-03-02T10:21:44.101Z,20.50
2023-03-02T10:26:59.008Z,20.80
2023-03-02T10:32:18.411Z,21.20
2023-03-02T10:37:26.682Z,21.80
2023-03-02T10:42:35.401Z,22.10
2023-03-02T10:47:40.888Z,22.70
2023-03-02T10:53:00.233Z,23.20
2023-03-02T10:58:08.979Z,23.20
2023-03-02T11:03:26.143Z,23.50
2023-03-02T11:08:33.003Z,23.60
2023-03-02T11:13:42.797Z,23.50
2023-03-02T11:18:54.075Z,23.40
2023-03-02T11:24:11.349Z,23.60
2023-03-02T11:29:27.448Z,23.60
2023-03-02T11:34:43.431Z,23.30
2023-03-02T11:40:16.806Z,23.50
2023-03-02T11:45:27.350Z,23.50
2023-03-02T11:50:38.076Z,23.30
2023-03-02T11:55:48.747Z,23.30
2023-03-02T12:00:55.361Z,23.40
2023-03-02T12:06:06.756Z,23.50
2023-03-02T12:11:35.472Z,23.80
2023-03-02T12:16:41.907Z,23.80
2023-03-02T12:21:58.345Z,24.00
2023-03-02T12:27:06.205Z,23.60
2023-03-02T12:32:24.538Z,23.20
2023-03-02T12:37:33.042Z,23.20
2023-03-02T12:42:51.249Z,23.40
2023-03-02T12:48:04.403Z,23.70
2023-03-02T12:53:19.833Z,23.80
2023-03-02T12:58:29.043Z,23.60
2023-03-02T13:03:33.430Z,23.10
2023-03-02T13:08:37.887Z,22.90
2023-03-02T13:13:46.111Z,22.80
2023-03-02T13:18:53.901Z,22.40
2023-03-02T13:24:03.430Z,21.90
2023-03-02T13:29:28.997Z,21.30
2023-03-02T13:34:48.263Z,20.80
2023-03-02T13:40:04.985Z,20.20
2023-03-02T13:45:33.783Z,19.60
2023-03-02T13:50:37.951Z,19.00
2023-03-02T13:55:42.130Z,18.60
2023-03-02T14:00:48.864Z,18.20
2023-03-02T14:05:53.523Z,17.70
2023-03-02T14:11:08.285Z,17.30
2023-03-02T14:16:16.284Z,16.90
2023-03-02T14:21:23.875Z,16.60
2023-03-02T14:26:35.368Z,16.20
2023-03-02T14:31:40.720Z,15.90
2023-03-02T14:36:48.203Z,15.80
2023-03-02T14:41:54.459Z,15.50
2023-03-02T14:47:02.905Z,15.30
2023-03-02T14:52:15.023Z,15.10
2023-03-02T14:57:21.860Z,14.90
2023-03-02T15:02:30.013Z,14.70
2023-03-02T15:07:34.122Z,14.40
2023-03-02T15:12:38.175Z,14.20
2023-03-02T15:17:46.867Z,13.90
2023-03-02T15:22:52.582Z,13.70
2023-03-02T15:27:58.131Z,13.60
2023-03-02T15:33:04.510Z,13.50
2023-03-02T15:38:19.578Z,13.40
2023-03-02T15:43:24.325Z,13.40
2023-03-02T15:48:30.790Z,13.40
2023-03-02T15:53:38.090Z,13.30
2023-03-02T15:58:46.661Z,13.20
2023-03-02T16:03:52.118Z,13.20
2023-03-02T16:08:56.367Z,13.10
2023-03-02T16:14:00.373Z,13.10
2023-03-02T16:19:05.795Z,12.80
2023-03-02T16:24:10.538Z,12.70
2023-03-02T16:29:15.286Z,12.60
2023-03-02T16:34:20.845Z,12.40
2023-03-02T16:39:24.965Z,12.30
2023-03-02T16:44:29.639Z,12.10
2023-03-02T16:49:35.111Z,11.90
2023-03-02T16:54:39.179Z,11.80
2023-03-02T16:59:43.348Z,11.60
2023-03-02T17:04:48.741Z,11.50
2023-03-02T17:09:52.767Z,11.40
2023-03-02T17:14:56.979Z,11.20
2023-03-02T17:20:02.574Z,11.00
2023-03-02T17:25:07.801Z,10.80
2023-03-02T17:30:13.768Z,10.70
2023-03-02T17:35:19.565Z,10.60
2023-03-02T17:40:24.368Z,10.40
2023-03-02T17:45:30.876Z,10.30
2023-03-02T17:50:37.415Z,10.20
2023-03-02T17:55:41.574Z,10.10
2023-03-02T18:00:46.099Z,10.00
2023-03-02T18:05:51.713Z,9.80
2023-03-02T18:10:56.048Z,9.70
2023-03-02T18:16:00.283Z,9.70
2023-03-02T18:21:06.494Z,9.60
2023-03-02T18:26:12.046Z,9.50
2023-03-02T18:31:18.954Z,9.40
2023-03-02T18:36:24.542Z,9.30
2023-03-02T18:41:28.597Z,9.10
2023-03-02T18:46:33.603Z,9.00
2023-03-02T18:51:45.523Z,8.90
2023-03-02T18:56:49.641Z,8.90
2023-03-02T19:01:53.892Z,8.80
2023-03-02T19:07:00.841Z,8.70
2023-03-02T19:12:05.778Z,8.60
2023-03-02T19:17:09.921Z,8.50
2023-03-02T19:22:16.666Z,8.40
2023-03-02T19:27:21.080Z,8.40
2023-03-02T19:32:26.354Z,8.30
2023-03-02T19:37:32.656Z,8.20
2023-03-02T19:42:39.444Z,8.10
2023-03-02T19:47:47.832Z,8.00
2023-03-02T19:52:54.999Z,7.90
2023-03-02T19:58:02.134Z,7.80
2023-03-02T20:03:08.581Z,7.80
2023-03-02T20:08:17.978Z,7.70
2023-03-02T20:13:22.291Z,7.60
2023-03-02T20:18:26.977Z,7.60
2023-03-02T20:23:32.568Z,7.50
2023-03-02T20:28:37.043Z,7.50
2023-03-02T20:33:46.405Z,7.40
2023-03-02T20:38:56.267Z,7.30
2023-03-02T20:44:00.477Z,7.30
2023-03-02T20:49:06.243Z,7.30
2023-03-02T20:54:11.909Z,7.20
2023-03-02T20:59:16.527Z,7.20
2023-03-02T21:04:20.970Z,7.10
2023-03-02T21:09:26.724Z,7.00
2023-03-02T21:14:30.768Z,6.90
2023-03-02T21:19:35.019Z,6.90
2023-03-02T21:24:40.390Z,6.80
2023-03-02T21:29:44.486Z,6.70
2023-03-02T21:34:48.611Z,6.70
2023-03-02T21:39:54.166Z,6.70
2023-03-02T21:44:58.264Z,6.60
2023-03-02T21:50:03.181Z,6.50
2023-03-02T21:55:13.309Z,6.50
2023-03-02T22:00:23.058Z,6.40
2023-03-02T22:05:28.083Z,6.40
2023-03-02T22:10:38.851Z,6.30
2023-03-02T22:15:43.060Z,6.30
2023-03-02T22:20:50.854Z,6.20
2023-03-02T22:26:02.889Z,6.10
2023-03-02T22:31:18.477Z,6.10
2023-03-02T22:36:25.136Z,6.00
2023-03-02T22:41:30.578Z,6.00
2023-03-02T22:46:34.714Z,5.90
2023-03-02T22:51:38.786Z,5.90
2023-03-02T22:56:48.656Z,5.80
2023-03-02T23:01:53.952Z,5.80
2023-03-02T23:07:00.707Z,5.70
2023-03-02T23:12:15.932Z,5.70
2023-03-02T23:17:22.562Z,5.70
2023-03-02T23:22:29.829Z,5.60
2023-03-02T23:27:35.394Z,5.50
2023-03-02T23:32:39.499Z,5.50
2023-03-02T23:37:43.600Z,5.50
2023-03-02T23:42:49.736Z,5.40
2023-03-02T23:47:53.794Z,5.30
2023-03-02T23:52:57.772Z,5.30
2023-03-02T23:58:03.141Z,5.20
